Time;durP1;ratioP1;P1;durP2;ratioP2;P2;SDS_P1;SDS_P2;PMS_P1;PMS_P2;Temp;Humidity;BMP_temperature;BMP_pressure;BME280_temperature;BME280_humidity;BME280_pressure;Samples;Min_cycle;Max_cycle;Signal;HPM_P1;HPM_P2
2023/10/03 01:48:18;;;;;;;;;;;;;;;22.94;48.08;101911.91;7400715;19;1744;-62
2023/10/03 01:50:50;;;;;;;;;;;;;;;22.95;48.12;101920.84;7395237;19;1730;-41
2023/10/03 01:53:19;;;;;;;;;;;;;;;22.95;47.93;101908.22;7396317;19;1841;-40
2023/10/03 01:55:48;;;;;;;;;;;;;;;22.91;48.04;101911.31;7398056;19;1698;-40
2023/10/03 01:58:16;;;;;;;;;;;;;;;22.86;48.10;101898.25;7383931;19;1536;-40
2023/10/03 02:00:46;;;;;;;;;;;;;;;22.90;48.24;101907.78;7399978;19;1786;-40
2023/10/03 02:03:14;;;;;;;;;;;;;;;22.86;48.10;101909.03;7399591;19;1515;-40
2023/10/03 02:05:43;;;;;;;;;;;;;;;22.93;48.01;101896.69;7398052;19;1820;-41
2023/10/03 02:08:16;;;;;;;;;;;;;;;22.92;47.93;101892.31;7398108;19;1725;-41
2023/10/03 02:10:44;;;;;;;;;;;;;;;22.92;48.14;101897.72;7400490;19;1031;-41
2023/10/03 02:13:14;;;;;;;;;;;;;;;22.94;47.65;101890.34;7397413;19;1861;-41
2023/10/03 02:15:46;;;;;;;;;;;;;;;22.90;47.77;101877.22;7397300;19;1827;-41
2023/10/03 02:18:16;;;;;;;;;;;;;;;22.88;48.16;101901.66;7398048;19;1721;-41
2023/10/03 02:20:51;;;;;;;;;;;;;;;22.83;48.28;101893.94;7397856;19;1532;-41
2023/10/03 02:23:23;;;;;;;;;;;;;;;22.87;48.17;101899.09;7396619;19;2470;-41
2023/10/03 02:25:51;;;;;;;;;;;;;;;22.87;47.84;101897.25;7397979;19;1515;-41
2023/10/03 02:28:20;;;;;;;;;;;;;;;22.85;47.96;101896.53;7397747;19;1947;-41
2023/10/03 02:30:50;;;;;;;;;;;;;;;22.84;48.05;101886.75;7397221;19;1809;-41
2023/10/03 02:33:22;;;;;;;;;;;;;;;22.85;48.04;101901.91;7394262;19;1838;-41
2023/10/03 02:35:51;;;;;;;;;;;;;;;22.86;48.04;101879.38;7392518;19;1820;-41
2023/10/03 02:38:29;;;;;;;;;;;;;;;22.83;48.07;101898.50;7396166;19;1597;-41
2023/10/03 02:40:58;;;;;;;;;;;;;;;22.90;47.86;101891.59;7395740;19;1556;-41
2023/10/03 02:43:26;;;;;;;;;;;;;;;22.83;48.07;101883.16;7395731;19;1658;-41
2023/10/03 02:45:54;;;;;;;;;;;;;;;22.82;47.98;101889.56;7394659;19;1674;-41
2023/10/03 02:48:23;;;;;;;;;;;;;;;22.83;48.05;101898.50;7395720;19;1531;-41
2023/10/03 02:50:52;;;;;;;;;;;;;;;22.84;47.92;101890.28;7394191;19;1762;-41
2023/10/03 02:53:24;;;;;;;;;;;;;;;22.81;47.72;101884.28;7393830;19;1866;-41
2023/10/03 02:55:54;;;;;;;;;;;;;;;22.85;47.88;101891.13;7394606;19;1674;-41
2023/10/03 02:58:22;;;;;;;;;;;;;;;22.82;48.01;101894.09;7379627;19;1563;-41
2023/10/03 03:00:51;;;;;;;;;;;;;;;22.82;47.65;101888.72;7396376;19;1518;-41
2023/10/03 03:03:20;;;;;;;;;;;;;;;22.83;47.64;101879.63;7395530;19;1568;-41
2023/10/03 03:05:49;;;;;;;;;;;;;;;22.87;47.32;101891.84;7394355;19;1589;-41
2023/10/03 03:08:28;;;;;;;;;;;;;;;22.86;47.63;101882.06;7394364;19;1469;-41
2023/10/03 03:11:00;;;;;;;;;;;;;;;22.86;47.49;101894.66;7390438;19;1522;-41
2023/10/03 03:13:31;;;;;;;;;;;;;;;22.84;47.35;101890.28;7389224;19;1817;-41
2023/10/03 03:16:03;;;;;;;;;;;;;;;22.80;47.93;101894.22;7394140;19;1447;-41
2023/10/03 03:18:39;;;;;;;;;;;;;;;22.96;47.66;101884.78;7393819;19;1417;-41
2023/10/03 03:21:13;;;;;;;;;;;;;;;22.94;48.14;101874.16;7393296;19;1311;-41
2023/10/03 03:23:42;;;;;;;;;;;;;;;22.97;48.62;101884.66;7393849;19;1484;-41
2023/10/03 03:26:18;;;;;;;;;;;;;;;22.96;48.70;101882.09;7394256;19;1400;-41
2023/10/03 03:28:49;;;;;;;;;;;;;;;22.94;48.77;101890.34;7395220;19;1547;-41
2023/10/03 03:31:21;;;;;;;;;;;;;;;22.94;48.38;101890.34;7393772;19;1460;-41
2023/10/03 03:33:50;;;;;;;;;;;;;;;22.89;48.50;101892.56;7393207;19;1867;-41
2023/10/03 03:36:20;;;;;;;;;;;;;;;22.89;48.35;101887.16;7392381;19;1552;-41
2023/10/03 03:38:49;;;;;;;;;;;;;;;22.91;48.60;101876.25;7395166;19;1827;-41
2023/10/03 03:41:20;;;;;;;;;;;;;;;22.94;48.65;101897.53;7394759;19;1479;-41
2023/10/03 03:43:49;;;;;;;;;;;;;;;22.99;48.64;101889.91;7389081;19;1794;-41
2023/10/03 03:46:18;;;;;;;;;;;;;;;23.04;48.14;101895.81;7394547;19;1459;-41
2023/10/03 03:48:47;;;;;;;;;;;;;;;22.98;48.63;101885.53;7392193;19;1470;-41
2023/10/03 03:51:16;;;;;;;;;;;;;;;23.02;48.68;101890.53;7394041;19;1494;-42
2023/10/03 03:53:45;;;;;;;;;;;;;;;22.98;48.85;101891.78;7392654;19;1849;-41
2023/10/03 03:56:16;;;;;;;;;;;;;;;22.95;48.47;101886.63;7392551;19;1440;-41
2023/10/03 03:58:48;;;;;;;;;;;;;;;23.02;48.71;101892.41;7373991;19;2552;-41
2023/10/03 04:01:19;;;;;;;;;;;;;;;23.11;48.25;101896.13;7389719;19;1527;-41
2023/10/03 04:03:49;;;;;;;;;;;;;;;22.58;47.02;101899.75;7400147;19;1581;-41
2023/10/03 04:06:18;;;;;;;;;;;;;;;22.66;47.08;101888.31;7402359;19;1188;-41
2023/10/03 04:08:47;;;;;;;;;;;;;;;22.80;48.77;101894.22;7401513;19;1870;-41
2023/10/03 04:11:16;;;;;;;;;;;;;;;22.85;48.77;101901.91;7402561;19;1893;-41
2023/10/03 04:13:55;;;;;;;;;;;;;;;22.88;48.75;101893.56;7399850;19;1874;-41
2023/10/03 04:16:26;;;;;;;;;;;;;;;22.94;48.48;101894.84;7401368;19;1677;-41
2023/10/03 04:18:55;;;;;;;;;;;;;;;22.92;48.34;101886.91;7400508;19;1556;-41
2023/10/03 04:21:27;;;;;;;;;;;;;;;22.90;48.77;101902.38;7400156;19;1504;-41
2023/10/03 04:23:55;;;;;;;;;;;;;;;22.92;48.58;101897.72;7400622;19;1515;-41
2023/10/03 04:26:24;;;;;;;;;;;;;;;22.91;48.95;101885.19;7401027;19;1450;-41
2023/10/03 04:28:55;;;;;;;;;;;;;;;22.90;48.71;101910.47;7401099;19;1559;-41
2023/10/03 04:31:23;;;;;;;;;;;;;;;22.95;48.90;101899.28;7400756;19;1340;-43
2023/10/03 04:33:52;;;;;;;;;;;;;;;22.94;49.15;101898.44;7400652;19;1856;-42
2023/10/03 04:36:24;;;;;;;;;;;;;;;22.90;49.23;101913.16;7402303;19;1213;-42
2023/10/03 04:38:53;;;;;;;;;;;;;;;22.88;49.25;101907.06;7399023;19;2457;-43
2023/10/03 04:41:21;;;;;;;;;;;;;;;22.84;49.79;101917.25;7399175;19;1539;-42
2023/10/03 04:43:49;;;;;;;;;;;;;;;22.46;45.50;101911.59;7396796;19;1542;-42
2023/10/03 04:46:20;;;;;;;;;;;;;;;22.09;44.98;101934.38;7399932;19;1506;-42
2023/10/03 04:48:49;;;;;;;;;;;;;;;21.97;43.43;101924.63;7400221;19;1528;-41
2023/10/03 04:51:17;;;;;;;;;;;;;;;21.94;42.83;101922.19;7400018;19;1403;-42
2023/10/03 04:53:45;;;;;;;;;;;;;;;21.74;42.23;101916.59;7399569;19;1854;-42
2023/10/03 04:56:14;;;;;;;;;;;;;;;21.45;41.78;101919.81;7399679;19;1724;-41
2023/10/03 04:58:43;;;;;;;;;;;;;;;21.26;42.00;101928.47;7386072;19;1841;-42
2023/10/03 05:01:13;;;;;;;;;;;;;;;21.14;42.08;101929.44;7400196;19;1427;-41
2023/10/03 05:03:43;;;;;;;;;;;;;;;21.11;41.67;101935.09;7400459;19;1861;-42
2023/10/03 05:06:12;;;;;;;;;;;;;;;21.08;41.73;101945.22;7400117;19;1777;-40
2023/10/03 05:08:42;;;;;;;;;;;;;;;21.01;41.60;101931.41;7399201;19;1462;-40
2023/10/03 05:11:13;;;;;;;;;;;;;;;20.94;41.56;101944.47;7399843;19;1849;-41
2023/10/03 05:13:43;;;;;;;;;;;;;;;20.92;41.45;101919.53;7397868;19;1850;-40
2023/10/03 05:16:11;;;;;;;;;;;;;;;20.91;41.52;101928.59;7397035;19;1508;-41
2023/10/03 05:18:40;;;;;;;;;;;;;;;20.98;41.95;101934.34;7398751;19;1499;-41
2023/10/03 05:21:11;;;;;;;;;;;;;;;20.99;41.53;101942.28;7400407;19;1233;-41
2023/10/03 05:23:41;;;;;;;;;;;;;;;21.18;41.18;101935.44;7399829;19;1682;-41
2023/10/03 05:26:09;;;;;;;;;;;;;;;21.28;41.06;101940.97;7398977;19;1659;-40
2023/10/03 05:28:37;;;;;;;;;;;;;;;21.29;42.19;101931.91;7399268;19;1733;-40
2023/10/03 05:31:23;;;;;;;;;;;;;;;21.60;42.33;101946.47;7397098;19;1524;-41
2023/10/03 05:33:53;;;;;;;;;;;;;;;21.80;42.19;101947.53;7397689;19;1855;-41
2023/10/03 05:36:24;;;;;;;;;;;;;;;21.93;42.23;101953.66;7398232;19;1018;-40
2023/10/03 05:38:52;;;;;;;;;;;;;;;22.03;42.20;101961.84;7397303;19;1883;-41
2023/10/03 05:41:21;;;;;;;;;;;;;;;22.05;42.41;101954.47;7394579;19;1507;-41
2023/10/03 05:43:49;;;;;;;;;;;;;;;22.12;42.52;101947.56;7395825;19;1533;-41
2023/10/03 05:46:18;;;;;;;;;;;;;;;22.16;42.26;101962.53;7393446;19;1432;-41
2023/10/03 05:48:46;;;;;;;;;;;;;;;22.26;42.11;101953.69;7396140;19;1757;-40
2023/10/03 05:51:14;;;;;;;;;;;;;;;22.29;42.26;101959.69;7395424;19;1721;-41
2023/10/03 05:53:45;;;;;;;;;;;;;;;22.31;42.13;101957.72;7395876;19;1860;-40
2023/10/03 05:56:14;;;;;;;;;;;;;;;22.41;42.23;101952.41;7397166;19;1460;-41
2023/10/03 05:58:43;;;;;;;;;;;;;;;22.50;42.20;101966.94;7382150;19;1356;-41
2023/10/03 06:01:12;;;;;;;;;;;;;;;22.51;42.22;101961.44;7397167;19;1565;-41
2023/10/03 06:03:41;;;;;;;;;;;;;;;22.41;42.25;101972.13;7398250;19;1571;-41
2023/10/03 06:06:09;;;;;;;;;;;;;;;22.33;42.35;101971.06;7398425;19;2017;-41
2023/10/03 06:08:38;;;;;;;;;;;;;;;22.51;42.27;101971.38;7397249;19;1785;-41
2023/10/03 06:11:10;;;;;;;;;;;;;;;22.44;42.31;101974.59;7399528;19;1542;-41
2023/10/03 06:13:41;;;;;;;;;;;;;;;22.43;42.56;101969.31;7398094;19;1855;-41
2023/10/03 06:16:12;;;;;;;;;;;;;;;22.61;42.19;101956.97;7398201;19;1725;-41
2023/10/03 06:18:40;;;;;;;;;;;;;;;22.38;42.67;101982.31;7398210;19;1510;-41
2023/10/03 06:21:09;;;;;;;;;;;;;;;22.30;42.92;101982.94;7398013;19;1721;-41
2023/10/03 06:23:38;;;;;;;;;;;;;;;22.37;42.74;101977.91;7395405;19;1703;-41
2023/10/03 06:26:09;;;;;;;;;;;;;;;22.34;43.03;101979.03;7396283;19;1803;-41
2023/10/03 06:28:37;;;;;;;;;;;;;;;22.38;43.06;101979.63;7397574;19;1389;-41
2023/10/03 06:31:06;;;;;;;;;;;;;;;22.38;43.24;101974.22;7397819;19;1312;-41
2023/10/03 06:33:35;;;;;;;;;;;;;;;22.41;42.96;101990.16;7398328;19;1923;-41
2023/10/03 06:36:06;;;;;;;;;;;;;;;22.38;42.99;101995.78;7396645;19;1537;-41
2023/10/03 06:38:34;;;;;;;;;;;;;;;22.38;43.28;101993.09;7396149;19;1873;-41
2023/10/03 06:41:02;;;;;;;;;;;;;;;22.39;43.28;102000.22;7398581;19;1745;-41
2023/10/03 06:43:33;;;;;;;;;;;;;;;22.35;43.21;101993.34;7396358;19;1400;-41
2023/10/03 06:46:04;;;;;;;;;;;;;;;22.42;43.30;102000.81;7396909;19;1761;-41
2023/10/03 06:48:32;;;;;;;;;;;;;;;22.48;43.30;101995.88;7396201;19;1651;-41
2023/10/03 06:51:04;;;;;;;;;;;;;;;22.45;43.37;101994.31;7397924;19;1835;-41
2023/10/03 06:53:32;;;;;;;;;;;;;;;22.49;43.56;101990.38;7397271;19;1507;-41
2023/10/03 06:56:01;;;;;;;;;;;;;;;22.50;43.37;101997.47;7396306;19;1454;-41
2023/10/03 06:58:30;;;;;;;;;;;;;;;22.48;43.44;102020.97;7391038;19;1455;-41
2023/10/03 07:01:02;;;;;;;;;;;;;;;22.50;43.55;101984.00;7393289;19;1746;-41
2023/10/03 07:03:30;;;;;;;;;;;;;;;22.59;43.52;101994.00;7396046;19;1459;-41
2023/10/03 07:05:59;;;;;;;;;;;;;;;22.60;43.40;102006.50;7395740;19;1462;-41
2023/10/03 07:08:28;;;;;;;;;;;;;;;22.56;43.61;101988.88;7395490;19;1623;-41
2023/10/03 07:10:57;;;;;;;;;;;;;;;22.55;43.59;102000.63;7396066;19;1787;-41
2023/10/03 07:13:26;;;;;;;;;;;;;;;22.59;43.67;101996.69;7395520;19;1484;-41
2023/10/03 07:15:54;;;;;;;;;;;;;;;22.61;43.50;102002.81;7394526;19;1852;-41
2023/10/03 07:18:25;;;;;;;;;;;;;;;22.63;43.68;102005.38;7395923;19;1968;-41
2023/10/03 07:20:55;;;;;;;;;;;;;;;22.72;43.81;102003.72;7396479;19;1466;-41
2023/10/03 07:23:23;;;;;;;;;;;;;;;22.74;43.73;101993.66;7394676;19;1844;-41
2023/10/03 07:25:52;;;;;;;;;;;;;;;22.68;43.89;101986.09;7397766;19;1844;-41
2023/10/03 07:28:20;;;;;;;;;;;;;;;22.70;43.71;101984.13;7395845;19;1375;-41
2023/10/03 07:30:48;;;;;;;;;;;;;;;22.70;43.83;101982.31;7395708;19;1971;-41
2023/10/03 07:33:17;;;;;;;;;;;;;;;22.72;43.92;101966.84;7395638;19;1903;-41
2023/10/03 07:35:47;;;;;;;;;;;;;;;22.81;44.26;101971.44;7397192;19;1855;-41
2023/10/03 07:38:16;;;;;;;;;;;;;;;22.81;43.98;101959.81;7402674;19;1958;-41
2023/10/03 07:40:44;;;;;;;;;;;;;;;22.86;44.24;101976.47;7404397;19;1535;-41
2023/10/03 07:43:12;;;;;;;;;;;;;;;22.91;44.36;101984.16;7402256;19;1822;-41
2023/10/03 07:45:41;;;;;;;;;;;;;;;22.93;44.41;101974.09;7403108;19;1438;-41
2023/10/03 07:48:10;;;;;;;;;;;;;;;22.93;44.09;101958.75;7401211;19;1404;-41
2023/10/03 07:50:38;;;;;;;;;;;;;;;22.90;44.32;101969.81;7402435;19;1447;-42
2023/10/03 07:53:11;;;;;;;;;;;;;;;22.97;44.06;101957.50;7402948;19;1441;-40
2023/10/03 07:55:39;;;;;;;;;;;;;;;23.00;44.19;101965.31;7400355;19;1847;-40
2023/10/03 07:58:08;;;;;;;;;;;;;;;23.02;43.90;101963.38;7403120;19;1742;-42
2023/10/03 08:00:37;;;;;;;;;;;;;;;23.04;44.36;101968.66;7388526;19;1660;-40
2023/10/03 08:03:08;;;;;;;;;;;;;;;23.01;44.30;101975.13;7402716;19;1515;-40
2023/10/03 08:05:37;;;;;;;;;;;;;;;22.95;44.14;101958.63;7402608;19;1492;-40
2023/10/03 08:08:07;;;;;;;;;;;;;;;22.98;44.07;101956.50;7402323;19;1713;-40
2023/10/03 08:10:38;;;;;;;;;;;;;;;23.00;44.04;101951.84;7403304;19;1105;-40
2023/10/03 08:13:08;;;;;;;;;;;;;;;23.10;44.11;101956.44;7401813;19;1844;-40
2023/10/03 08:15:36;;;;;;;;;;;;;;;23.12;44.06;101963.44;7400085;19;1841;-40
2023/10/03 08:18:04;;;;;;;;;;;;;;;23.10;44.04;101953.75;7401360;19;1633;-40
2023/10/03 08:20:36;;;;;;;;;;;;;;;23.09;44.08;101970.94;7401917;19;1509;-40
2023/10/03 08:23:04;;;;;;;;;;;;;;;23.16;43.87;101974.84;7401541;19;1500;-41
2023/10/03 08:25:34;;;;;;;;;;;;;;;23.20;44.01;101946.59;7402994;19;1126;-40
2023/10/03 08:28:09;;;;;;;;;;;;;;;23.31;42.93;101946.47;7401398;19;1863;-40
2023/10/03 08:30:38;;;;;;;;;;;;;;;23.29;43.49;101947.59;7401651;19;1809;-40
2023/10/03 08:33:07;;;;;;;;;;;;;;;23.25;43.57;101957.81;7401363;19;1808;-40
2023/10/03 08:35:38;;;;;;;;;;;;;;;23.28;43.62;101956.69;7400340;19;1830;-42
2023/10/03 08:38:07;;;;;;;;;;;;;;;23.25;43.64;101941.63;7401086;19;1855;-43
2023/10/03 08:40:39;;;;;;;;;;;;;;;23.23;43.65;101938.19;7401878;19;1455;-42
2023/10/03 08:43:12;;;;;;;;;;;;;;;23.22;43.55;101940.06;7400160;19;1507;-42
2023/10/03 08:45:42;;;;;;;;;;;;;;;23.21;43.77;101941.03;7403235;19;1837;-42
2023/10/03 08:48:11;;;;;;;;;;;;;;;23.22;43.52;101934.66;7399337;19;1756;-42
2023/10/03 08:50:46;;;;;;;;;;;;;;;23.29;43.52;101926.03;7402588;19;1845;-42
2023/10/03 08:53:26;;;;;;;;;;;;;;;23.37;42.31;101936.97;7402061;19;1760;-42
2023/10/03 08:55:57;;;;;;;;;;;;;;;23.51;42.52;101944.69;7400420;19;1850;-41
2023/10/03 08:58:29;;;;;;;;;;;;;;;23.50;42.48;101931.38;7402393;19;1717;-43
2023/10/03 09:01:02;;;;;;;;;;;;;;;23.42;42.62;101926.66;7387042;19;1749;-41
2023/10/03 09:03:46;;;;;;;;;;;;;;;23.36;43.08;101922.66;7400091;19;1821;-42
2023/10/03 09:06:19;;;;;;;;;;;;;;;23.37;43.26;101929.72;7400877;19;1574;-42
2023/10/03 09:08:48;;;;;;;;;;;;;;;23.37;43.16;101918.94;7399528;19;1703;-42
2023/10/03 09:11:16;;;;;;;;;;;;;;;23.38;43.19;101925.22;7401741;19;1820;-41
2023/10/03 09:13:50;;;;;;;;;;;;;;;23.37;43.11;101921.63;7399623;19;1963;-42
2023/10/03 09:16:20;;;;;;;;;;;;;;;23.48;42.99;101914.44;7397334;19;1869;-40
2023/10/03 09:18:56;;;;;;;;;;;;;;;23.57;42.89;101914.44;7398300;19;1702;-40
2023/10/03 09:21:27;;;;;;;;;;;;;;;23.49;42.47;101913.44;7400557;19;1732;-41
2023/10/03 09:24:01;;;;;;;;;;;;;;;23.52;42.99;101919.44;7398890;19;1818;-41
2023/10/03 09:26:29;;;;;;;;;;;;;;;23.50;42.83;101926.81;7399754;19;1710;-41
2023/10/03 09:29:08;;;;;;;;;;;;;;;23.58;42.30;101924.28;7399554;19;1671;-41
2023/10/03 09:31:36;;;;;;;;;;;;;;;23.57;42.56;101906.34;7399290;19;1824;-41
2023/10/03 09:34:05;;;;;;;;;;;;;;;23.58;42.75;101909.94;7401113;19;1851;-40
2023/10/03 09:36:35;;;;;;;;;;;;;;;23.57;42.50;101903.66;7398250;19;1835;-41
2023/10/03 09:39:06;;;;;;;;;;;;;;;23.54;42.88;101905.81;7399235;19;1904;-41
2023/10/03 09:41:38;;;;;;;;;;;;;;;23.56;42.22;101906.50;7399689;19;2006;-42
2023/10/03 09:44:10;;;;;;;;;;;;;;;23.57;42.68;101908.19;7398712;19;1821;-41
2023/10/03 09:46:41;;;;;;;;;;;;;;;23.59;42.63;101903.53;7399504;19;1498;-42
2023/10/03 09:49:13;;;;;;;;;;;;;;;23.60;42.40;101891.75;7397939;19;1399;-42
2023/10/03 09:51:51;;;;;;;;;;;;;;;23.74;42.34;101885.94;7398095;19;1376;-40
2023/10/03 09:54:24;;;;;;;;;;;;;;;23.73;41.19;101886.91;7398412;19;1686;-41
2023/10/03 09:56:55;;;;;;;;;;;;;;;23.65;41.49;101881.34;7395811;19;1860;-42
2023/10/03 09:59:26;;;;;;;;;;;;;;;23.61;42.21;101886.19;7384251;19;1279;-41
2023/10/03 10:01:59;;;;;;;;;;;;;;;23.62;41.90;101873.56;7397487;19;1506;-41
2023/10/03 10:04:30;;;;;;;;;;;;;;;23.67;41.83;101873.97;7397753;19;1563;-41
2023/10/03 10:07:14;;;;;;;;;;;;;;;23.62;41.67;101858.19;7397707;19;1491;-41
2023/10/03 10:09:47;;;;;;;;;;;;;;;23.65;42.02;101869.72;7397764;19;1568;-41
2023/10/03 10:12:19;;;;;;;;;;;;;;;23.59;42.10;101857.63;7397125;19;1759;-41
2023/10/03 10:15:13;;;;;;;;;;;;;;;23.62;42.26;101863.59;7398326;19;1853;-42
2023/10/03 10:17:55;;;;;;;;;;;;;;;23.53;42.38;101853.63;7397667;19;1682;-42
2023/10/03 10:20:27;;;;;;;;;;;;;;;23.52;42.12;101860.03;7397427;19;1786;-43
2023/10/03 10:23:20;;;;;;;;;;;;;;;23.52;42.45;101861.88;7398847;19;1563;-47
2023/10/03 10:25:58;;;;;;;;;;;;;;;23.59;42.27;101838.72;7399551;19;1796;-43
2023/10/03 10:28:31;;;;;;;;;;;;;;;23.56;42.36;101847.97;7397178;19;1800;-43
2023/10/03 10:31:16;;;;;;;;;;;;;;;23.60;42.17;101838.59;7397207;19;1765;-42
2023/10/03 10:33:49;;;;;;;;;;;;;;;23.57;41.78;101838.00;7396691;19;1651;-41
2023/10/03 10:36:18;;;;;;;;;;;;;;;23.50;42.33;101836.88;7397179;19;1853;-42
2023/10/03 10:38:55;;;;;;;;;;;;;;;23.45;42.53;101831.03;7396283;19;1794;-42
2023/10/03 10:41:30;;;;;;;;;;;;;;;23.56;41.86;101834.47;7397919;19;1752;-43
2023/10/03 10:44:08;;;;;;;;;;;;;;;23.51;42.55;101843.97;7397379;19;1829;-43
2023/10/03 10:46:38;;;;;;;;;;;;;;;23.42;43.03;101827.63;7397497;19;1391;-42
2023/10/03 10:49:30;;;;;;;;;;;;;;;23.36;43.13;101833.56;7396390;19;1824;-42
2023/10/03 10:52:01;;;;;;;;;;;;;;;23.37;43.18;101824.47;7396950;19;2434;-43
2023/10/03 10:54:29;;;;;;;;;;;;;;;23.30;43.10;101823.31;7397009;19;1536;-43
2023/10/03 10:57:01;;;;;;;;;;;;;;;23.39;43.31;101817.06;7394852;19;1857;-43
2023/10/03 10:59:29;;;;;;;;;;;;;;;23.33;43.26;101814.94;7385081;19;1626;-43
2023/10/03 11:02:00;;;;;;;;;;;;;;;23.32;43.14;101817.81;7394248;19;1605;-42
2023/10/03 11:04:33;;;;;;;;;;;;;;;23.33;43.26;101814.09;7397262;19;1206;-42
2023/10/03 11:07:01;;;;;;;;;;;;;;;23.40;42.85;101813.41;7397212;19;1852;-43
2023/10/03 11:09:29;;;;;;;;;;;;;;;23.51;42.65;101801.59;7395657;19;1948;-42
2023/10/03 11:11:58;;;;;;;;;;;;;;;23.40;42.86;101793.66;7396255;19;1829;-42
2023/10/03 11:14:31;;;;;;;;;;;;;;;23.35;43.20;101802.16;7396433;19;1753;-43
2023/10/03 11:17:00;;;;;;;;;;;;;;;23.33;42.99;101798.75;7395060;19;1908;-43
2023/10/03 11:19:32;;;;;;;;;;;;;;;23.26;42.92;101792.22;7396055;19;1702;-42
2023/10/03 11:22:00;;;;;;;;;;;;;;;23.26;43.33;101791.34;7396751;19;1658;-43
2023/10/03 11:24:29;;;;;;;;;;;;;;;23.31;43.14;101783.69;7396514;19;1901;-43
2023/10/03 11:26:58;;;;;;;;;;;;;;;23.32;42.70;101786.25;7395054;19;1498;-42
2023/10/03 11:29:40;;;;;;;;;;;;;;;23.27;43.03;101772.31;7395448;19;1460;-42
2023/10/03 11:32:19;;;;;;;;;;;;;;;23.35;42.98;101788.66;7394823;19;1693;-42
2023/10/03 11:34:51;;;;;;;;;;;;;;;23.12;43.07;101744.00;7395242;19;1480;-43
2023/10/03 11:37:32;;;;;;;;;;;;;;;23.29;42.91;101767.63;7394541;19;1845;-42
2023/10/03 11:40:08;;;;;;;;;;;;;;;23.35;42.65;101767.06;7396386;19;1591;-42
2023/10/03 11:42:36;;;;;;;;;;;;;;;23.37;42.68;101761.53;7396215;19;1815;-42
2023/10/03 11:45:05;;;;;;;;;;;;;;;23.36;42.75;101758.00;7395888;19;1587;-43
2023/10/03 11:47:34;;;;;;;;;;;;;;;23.30;43.01;101757.69;7396461;19;1819;-43
2023/10/03 11:50:06;;;;;;;;;;;;;;;23.35;42.82;101753.56;7395892;19;1579;-42
2023/10/03 11:52:34;;;;;;;;;;;;;;;23.30;43.23;101749.59;7395976;19;1769;-42
2023/10/03 11:55:03;;;;;;;;;;;;;;;23.29;42.92;101748.75;7395483;19;1821;-42
2023/10/03 11:57:31;;;;;;;;;;;;;;;23.26;42.79;101754.44;7393954;19;1830;-42
2023/10/03 12:00:01;;;;;;;;;;;;;;;23.26;43.14;101743.63;7382021;19;1955;-42
2023/10/03 12:02:29;;;;;;;;;;;;;;;23.30;42.94;101745.06;7394116;19;1888;-42
2023/10/03 12:04:57;;;;;;;;;;;;;;;23.32;43.03;101755.72;7394275;19;1539;-43
2023/10/03 12:07:28;;;;;;;;;;;;;;;23.27;42.93;101750.72;7394210;19;1699;-43
2023/10/03 12:09:59;;;;;;;;;;;;;;;23.28;43.25;101749.75;7395350;19;1958;-42
2023/10/03 12:12:27;;;;;;;;;;;;;;;23.34;42.82;101740.25;7394723;19;1869;-43
2023/10/03 12:14:56;;;;;;;;;;;;;;;23.31;42.96;101735.94;7393244;19;1733;-42
2023/10/03 12:17:24;;;;;;;;;;;;;;;23.29;43.11;101732.53;7393535;19;1841;-43
2023/10/03 12:19:53;;;;;;;;;;;;;;;23.31;42.84;101724.31;7393559;19;1510;-42
2023/10/03 12:22:22;;;;;;;;;;;;;;;23.23;43.02;101719.63;7390185;19;1405;-43
2023/10/03 12:24:52;;;;;;;;;;;;;;;23.36;43.27;101708.56;7399705;19;1349;-43
2023/10/03 12:27:21;;;;;;;;;;;;;;;23.32;42.83;101716.09;7400357;19;1479;-41
2023/10/03 12:29:51;;;;;;;;;;;;;;;23.24;43.10;101718.63;7395678;19;1451;-42
2023/10/03 12:32:19;;;;;;;;;;;;;;;23.36;42.93;101731.00;7401714;19;1535;-42
2023/10/03 12:34:48;;;;;;;;;;;;;;;23.30;42.84;101711.78;7400510;19;1730;-42
2023/10/03 12:37:18;;;;;;;;;;;;;;;23.45;42.84;101709.53;7397464;19;1848;-42
2023/10/03 12:39:46;;;;;;;;;;;;;;;23.40;43.04;101708.13;7401193;19;1625;-41
2023/10/03 12:42:17;;;;;;;;;;;;;;;23.45;43.81;101707.69;7400735;19;1430;-42
2023/10/03 12:44:45;;;;;;;;;;;;;;;23.33;43.96;101712.38;7398757;19;1475;-42
2023/10/03 12:47:14;;;;;;;;;;;;;;;23.30;43.84;101701.88;7399190;19;1491;-42
2023/10/03 12:49:42;;;;;;;;;;;;;;;23.25;43.84;101706.84;7398402;19;1543;-42
2023/10/03 12:52:10;;;;;;;;;;;;;;;23.29;43.76;101697.47;7394491;19;1588;-42
2023/10/03 12:54:39;;;;;;;;;;;;;;;23.49;42.97;101689.38;7396134;19;1531;-42
2023/10/03 12:57:07;;;;;;;;;;;;;;;23.50;42.74;101675.72;7395251;19;1855;-42
2023/10/03 12:59:38;;;;;;;;;;;;;;;23.55;42.57;101689.63;7396567;19;1901;-42
2023/10/03 13:02:07;;;;;;;;;;;;;;;23.78;41.70;101676.72;7385318;19;1514;-42
2023/10/03 13:04:35;;;;;;;;;;;;;;;23.69;41.92;101677.53;7399271;19;1845;-42
2023/10/03 13:07:04;;;;;;;;;;;;;;;23.43;42.02;101669.19;7396036;19;1399;-42
2023/10/03 13:09:35;;;;;;;;;;;;;;;23.33;42.60;101704.28;7395256;19;1496;-42
2023/10/03 13:12:03;;;;;;;;;;;;;;;23.22;42.69;101686.38;7394768;19;1488;-42
2023/10/03 13:14:32;;;;;;;;;;;;;;;23.28;42.90;101686.78;7395806;19;1596;-42
2023/10/03 13:17:04;;;;;;;;;;;;;;;23.52;42.16;101662.94;7394510;19;1853;-42
2023/10/03 13:19:34;;;;;;;;;;;;;;;23.48;42.20;101657.97;7395763;19;1835;-42
2023/10/03 13:22:03;;;;;;;;;;;;;;;23.58;41.84;101656.13;7399733;19;1530;-42
2023/10/03 13:24:32;;;;;;;;;;;;;;;23.68;41.16;101654.25;7399225;19;1826;-42
2023/10/03 13:27:02;;;;;;;;;;;;;;;23.68;40.66;101651.56;7399583;19;1641;-42
2023/10/03 13:29:30;;;;;;;;;;;;;;;23.58;40.93;101653.41;7399390;19;1722;-42
2023/10/03 13:31:59;;;;;;;;;;;;;;;23.78;40.44;101652.41;7398826;19;1705;-42
2023/10/03 13:34:30;;;;;;;;;;;;;;;23.72;40.82;101661.06;7399149;19;1463;-42
2023/10/03 13:36:59;;;;;;;;;;;;;;;23.77;40.82;101648.00;7398435;19;1863;-42
2023/10/03 13:39:28;;;;;;;;;;;;;;;23.59;41.62;101655.09;7399977;19;1320;-42
2023/10/03 13:41:57;;;;;;;;;;;;;;;23.41;42.12;101654.97;7401027;19;1827;-42
2023/10/03 13:44:25;;;;;;;;;;;;;;;23.31;42.25;101655.00;7399525;19;1959;-42
2023/10/03 13:46:54;;;;;;;;;;;;;;;23.39;41.93;101647.03;7398540;19;1518;-42
2023/10/03 13:49:24;;;;;;;;;;;;;;;23.38;41.96;101644.50;7398619;19;1682;-42
2023/10/03 13:51:55;;;;;;;;;;;;;;;23.54;41.78;101638.50;7398698;19;1737;-42
2023/10/03 13:54:24;;;;;;;;;;;;;;;23.63;41.93;101656.53;7397713;19;1339;-42
2023/10/03 13:56:52;;;;;;;;;;;;;;;23.48;42.33;101631.84;7396728;19;1864;-42
2023/10/03 13:59:20;;;;;;;;;;;;;;;23.39;42.24;101640.78;7398796;19;1330;-42
2023/10/03 14:01:48;;;;;;;;;;;;;;;23.29;42.63;101645.34;7382981;19;1554;-42
2023/10/03 14:04:18;;;;;;;;;;;;;;;23.51;42.24;101642.31;7397629;19;1564;-42
2023/10/03 14:06:47;;;;;;;;;;;;;;;23.54;42.18;101631.25;7399911;19;1816;-42
2023/10/03 14:09:19;;;;;;;;;;;;;;;23.52;42.23;101622.44;7397041;19;1630;-42
2023/10/03 14:11:48;;;;;;;;;;;;;;;23.51;42.33;101627.97;7398631;19;1284;-42
2023/10/03 14:14:17;;;;;;;;;;;;;;;23.42;42.38;101630.56;7396844;19;1848;-42
2023/10/03 14:16:46;;;;;;;;;;;;;;;23.32;42.54;101623.47;7396887;19;1849;-42
2023/10/03 14:19:15;;;;;;;;;;;;;;;23.32;42.68;101635.13;7398267;19;1642;-42
2023/10/03 14:21:43;;;;;;;;;;;;;;;23.49;42.50;101632.69;7397599;19;1722;-42
2023/10/03 14:24:12;;;;;;;;;;;;;;;23.65;42.05;101630.22;7395908;19;1734;-42
2023/10/03 14:26:43;;;;;;;;;;;;;;;23.56;42.31;101633.81;7396416;19;1568;-42
2023/10/03 14:29:11;;;;;;;;;;;;;;;23.49;42.38;101621.88;7397352;19;1428;-42
2023/10/03 14:31:40;;;;;;;;;;;;;;;23.46;42.63;101632.94;7398259;19;1889;-42
2023/10/03 14:34:10;;;;;;;;;;;;;;;23.46;42.74;101627.56;7398446;19;1944;-42
2023/10/03 14:36:38;;;;;;;;;;;;;;;23.66;42.32;101631.94;7396943;19;1857;-42
2023/10/03 14:39:12;;;;;;;;;;;;;;;23.75;42.01;101636.44;7397872;19;1738;-42
2023/10/03 14:41:43;;;;;;;;;;;;;;;23.63;42.42;101633.09;7396326;19;1825;-42
2023/10/03 14:44:11;;;;;;;;;;;;;;;23.76;42.18;101630.06;7399150;19;1769;-42
2023/10/03 14:46:39;;;;;;;;;;;;;;;23.62;42.38;101622.44;7397763;19;1690;-42
2023/10/03 14:49:08;;;;;;;;;;;;;;;23.63;41.99;101637.63;7396192;19;1934;-42
2023/10/03 14:51:36;;;;;;;;;;;;;;;23.59;41.92;101638.91;7397813;19;1888;-42